ULLIUMMS

Guest
Details From ULLI - Saint Petersburg Pulkovo
To UMMS - Minsk Velikiydvor
Flight Number -
Tags Generated
Created
Modified
Stats Distance 363 nm / 673 km
Max Altitude 0 ft / 0 m
Waypoints 3
Social Downloads 20
Likes 0
Share VATSIM

Download

Looking for another format? Having issues loading an existing format? Contact us
Advertisement - Login to hide

Notes

Generated

Route

ULLI VX UMMS

ID Type Via Altitude Latitude Longitude Leg Dist Tot Dist Heading (true) Name
O ULLI APT - 0 ft / 0 m 59.80973˚ 30.24537˚ - 0 nm - -
VX NDB - 0 ft / 0 m 53.92167˚ 27.97500˚ 361 nm 361 nm 193° / 191° MINSK-2 NDB
O UMMS APT - 0 ft / 0 m 53.89487˚ 28.01253˚ 2 nm 363 nm 140° / 140° -

Altitude Profile

Advertisement - Login to hide

Weather


0- 5 10 15 20 25 30 35+ Temperature / ° C

Clouds and Precipitation
Forecast for 2018-05-25 18:00 UTC. Updated 6 hours ago

Ground ~20,000 ft ~40,000 ft Winds

ULLI

Details ICAO ULLI (LED)
Name Saint Petersburg Pulkovo
Region Russia
Timezone Europe/Moscow (UTC+3.0)
Stats Elevation 78 ft / 24 m (AMSL)
Location 59.800292° 30.262504°
Runways 2
Magnetic Variation 10.762° E

METAR

ULLI 252230Z VRB01MPS CAVOK 11/05 Q1030 R88/090060 NOSIG

Decode

TAF

TAF ULLI 251959Z 2521/2621 22003MPS CAVOK BECMG 2606/2608 26003G08MPS TEMPO 2609/2618 30005G10MPS

Decode

Departure Runways

ID Width Length Bearing (true) Bearing (mag) Surface Threshold Offset Overrun Length
10L 197 ft / 60 m 11,115 ft / 3,388 m 106.38° 95.62° Concrete 0 ft / 0 m 235 ft / 72 m
10R 197 ft / 60 m 12,365 ft / 3,769 m 106.40° 95.64° Concrete 0 ft / 0 m 220 ft / 67 m
28L 197 ft / 60 m 12,365 ft / 3,769 m 286.46° 275.70° Concrete 0 ft / 0 m 260 ft / 79 m
28R 197 ft / 60 m 11,115 ft / 3,388 m 286.44° 275.68° Concrete 0 ft / 0 m 240 ft / 73 m

UMMS

Details ICAO UMMS (MSQ)
Name Minsk Velikiydvor
Region Belarus and Russia (Kaliningrad Oblast)
Timezone Europe/Minsk (UTC+3.0)
Stats Elevation 669 ft / 204 m (AMSL)
Location 53.882550° 28.030786°
Runways 1
Magnetic Variation 8.067° E

METAR

UMMS 252230Z 10004MPS CAVOK 15/10 Q1027 R13/D NOSIG

Decode

TAF

TAF UMMS 251703Z 2518/2618 09005MPS 9999 SCT030 TEMPO 2521/2606 1500 BR SCT004 BECMG 2606/2607 13006MPS

Decode

Destination Runways

ID Width Length Bearing (true) Bearing (mag) Surface Threshold Offset Overrun Length
13 197 ft / 60 m 11,938 ft / 3,639 m 138.85° 130.78° Concrete 0 ft / 0 m 0 ft / 0 m
31 197 ft / 60 m 11,938 ft / 3,639 m 318.88° 310.81° Concrete 0 ft / 0 m 0 ft / 0 m

Approach Navaids

Runway Type Ident Frequency Range Bearing (true) Bearing (mag) Slope Elevation
13 Localiser IVX 108.90 MHz 18 nm / 33 km 138.79° 130.73° - 669 ft / 204 m (AMSL)
13 Glidescope IVX 108.90 MHz 10 nm / 19 km 138.79° 130.73° 2.70° 669 ft / 204 m (AMSL)
31 Localiser IGH 109.70 MHz 18 nm / 33 km 318.83° 310.77° - 669 ft / 204 m (AMSL)
31 Glidescope IGH 109.70 MHz 10 nm / 19 km 318.83° 310.77° 2.70° 669 ft / 204 m (AMSL)

Popular Alternatives